Duck Valley, Nevada
Current Conditions -  °F | °C
As of 8:43 PM on Saturday 20 Dec 2014 (Local Time) from KMUO Reporting Station
Light Rain Light Rain  
Wind Chill: 33°   Ceiling: 5000
Heat Index: 41°   Visibility: 10mi
Dew Point: 39°   Wind: 14mph
Humidity: 93%   Direction: 100°E
Pressure: 29.92"   Gusts: NA
Location:  41.9458°N, 116.094°W
Report Text: KMUO 210443Z AUTO 10012KT 10SM -RA FEW042 OVC050 05/04 A2992 RMK AO2
Loading
Personal Weather Stations






























Interactive Weather Map New forecast layout! Learn more

10-Day Weather Forecast

Advertisements
Track Severe Weather on mobile